Pateros, Washington
Current Conditions -  °F | °C
As of 6:53 AM on Sunday 21 Dec 2014 (Local Time) from KOMK Reporting Station
Clear Clear  
Wind Chill: 28°   Ceiling: Unl
Heat Index: 34°   Visibility: 10mi
Dew Point: 32°   Wind: 7mph
Humidity: 92%   Direction: 190°S
Pressure: 29.66"   Gusts: NA
Location:  48.05°N, 119.9°W
Report Text: KOMK 211453Z AUTO 19006KT 10SM CLR 01/00 A2966 RMK AO2 SLP054 T00110000 53033
Loading
Personal Weather Stations






























Interactive Weather Map New forecast layout! Learn more

10-Day Weather Forecast

Advertisements
Track Severe Weather on mobile